createdAt,value
2023-01-17T00:02:34.433Z,2.10
2023-01-17T00:07:55.284Z,2.10
2023-01-17T00:13:00.860Z,2.20
2023-01-17T00:18:03.229Z,2.20
2023-01-17T00:23:25.571Z,2.40
2023-01-17T00:28:28.687Z,2.30
2023-01-17T00:33:31.665Z,2.40
2023-01-17T00:38:36.813Z,2.50
2023-01-17T00:43:58.201Z,2.30
2023-01-17T00:49:19.261Z,2.60
2023-01-17T00:54:40.192Z,2.70
2023-01-17T01:00:01.005Z,2.70
2023-01-17T01:05:21.864Z,2.70
2023-01-17T01:10:42.641Z,2.60
2023-01-17T01:16:03.934Z,2.50
2023-01-17T01:21:25.036Z,2.40
2023-01-17T01:26:45.976Z,2.40
2023-01-17T01:32:06.701Z,2.40
2023-01-17T01:37:09.099Z,2.30
2023-01-17T01:42:15.601Z,2.30
2023-01-17T01:47:40.810Z,2.50
2023-01-17T01:52:48.121Z,2.20
2023-01-17T01:57:53.445Z,2.10
2023-01-17T02:03:00.019Z,2.00
2023-01-17T02:08:08.699Z,1.90
2023-01-17T02:13:13.149Z,1.80
2023-01-17T02:18:25.728Z,1.90
2023-01-17T02:23:50.030Z,1.90
2023-01-17T02:29:24.542Z,2.00
2023-01-17T02:34:56.026Z,2.00
2023-01-17T02:40:11.581Z,1.90
2023-01-17T02:45:19.332Z,1.90
2023-01-17T02:50:26.722Z,1.90
2023-01-17T02:55:57.784Z,1.80
2023-01-17T03:01:15.921Z,1.80
2023-01-17T03:06:32.473Z,1.80
2023-01-17T03:11:34.880Z,1.80
2023-01-17T03:16:37.461Z,1.80
2023-01-17T03:21:40.129Z,1.80
2023-01-17T03:26:45.072Z,1.80
2023-01-17T03:31:47.514Z,1.90
2023-01-17T03:36:49.928Z,1.90
2023-01-17T03:41:52.277Z,2.00
2023-01-17T03:46:54.588Z,1.90
2023-01-17T03:51:56.912Z,1.90
2023-01-17T03:56:59.336Z,2.00
2023-01-17T04:02:01.833Z,2.00
2023-01-17T04:07:04.677Z,2.00
2023-01-17T04:12:07.314Z,1.90
2023-01-17T04:17:13.298Z,1.90
2023-01-17T04:22:16.051Z,1.80
2023-01-17T04:27:18.690Z,1.90
2023-01-17T04:32:21.031Z,1.80
2023-01-17T04:37:23.434Z,1.80
2023-01-17T04:42:25.816Z,1.90
2023-01-17T04:47:28.190Z,1.80
2023-01-17T04:52:30.518Z,1.80
2023-01-17T04:57:32.851Z,1.80
2023-01-17T05:02:38.840Z,1.80
2023-01-17T05:07:41.177Z,1.90
2023-01-17T05:12:43.569Z,2.00
2023-01-17T05:17:45.943Z,2.10
2023-01-17T05:22:58.054Z,2.10
2023-01-17T05:28:00.700Z,2.10
2023-01-17T05:33:03.095Z,2.20
2023-01-17T05:38:05.589Z,2.30
2023-01-17T05:43:08.983Z,2.30
2023-01-17T05:48:11.381Z,2.40
2023-01-17T05:53:15.963Z,2.60
2023-01-17T05:58:21.319Z,2.60
2023-01-17T06:03:23.747Z,2.60
2023-01-17T06:08:26.123Z,2.70
2023-01-17T06:13:28.484Z,2.80
2023-01-17T06:18:31.742Z,2.80
2023-01-17T06:23:34.304Z,2.90
2023-01-17T06:28:36.667Z,2.90
2023-01-17T06:33:38.996Z,2.90
2023-01-17T06:38:41.317Z,2.90
2023-01-17T06:43:43.656Z,3.00
2023-01-17T06:48:46.187Z,3.00
2023-01-17T06:53:49.077Z,3.00
2023-01-17T06:58:52.177Z,3.10
2023-01-17T07:03:54.873Z,3.10
2023-01-17T07:08:57.449Z,3.00
2023-01-17T07:13:59.915Z,3.00
2023-01-17T07:19:02.332Z,3.10
2023-01-17T07:24:05.337Z,3.10
2023-01-17T07:29:07.804Z,3.10
2023-01-17T07:34:10.713Z,3.20
2023-01-17T07:39:13.121Z,3.20
2023-01-17T07:44:15.586Z,3.20
2023-01-17T07:49:17.962Z,3.30
2023-01-17T07:54:20.296Z,3.30
2023-01-17T07:59:22.689Z,3.40
2023-01-17T08:04:29.047Z,3.40
2023-01-17T08:09:31.576Z,3.50
2023-01-17T08:14:33.981Z,4.20
2023-01-17T08:19:36.344Z,3.70
2023-01-17T08:24:43.169Z,3.70
2023-01-17T08:29:48.382Z,3.80
2023-01-17T08:34:50.979Z,3.90
2023-01-17T08:39:53.338Z,4.00
2023-01-17T08:44:57.953Z,4.00
2023-01-17T08:50:01.102Z,4.00
2023-01-17T08:55:05.963Z,4.10
2023-01-17T09:00:09.413Z,4.20
2023-01-17T09:05:13.540Z,4.30
2023-01-17T09:10:16.445Z,4.40
2023-01-17T09:15:20.284Z,4.60
2023-01-17T09:20:23.865Z,4.70
2023-01-17T09:25:27.122Z,4.80
2023-01-17T09:30:29.586Z,4.80
2023-01-17T09:35:32.061Z,5.00
2023-01-17T09:40:36.644Z,5.10
2023-01-17T09:45:39.197Z,5.10
2023-01-17T09:50:52.807Z,5.20
2023-01-17T09:56:03.601Z,5.50
2023-01-17T10:01:06.056Z,5.10
2023-01-17T10:06:34.489Z,5.20
2023-01-17T10:11:45.869Z,5.30
2023-01-17T10:17:16.289Z,5.40
2023-01-17T10:22:31.152Z,5.50
2023-01-17T10:27:46.653Z,5.60
2023-01-17T10:32:50.419Z,5.60
2023-01-17T10:37:56.936Z,5.40
2023-01-17T10:43:10.566Z,5.40
2023-01-17T10:48:23.137Z,5.60
2023-01-17T10:53:45.145Z,5.80
2023-01-17T10:58:49.236Z,6.00
2023-01-17T11:03:53.848Z,6.50
2023-01-17T11:09:03.125Z,6.10
2023-01-17T11:14:15.218Z,6.00
2023-01-17T11:19:30.523Z,6.10
2023-01-17T11:24:37.174Z,6.00
2023-01-17T11:29:40.771Z,6.00
2023-01-17T11:34:43.150Z,5.90
2023-01-17T11:39:48.288Z,5.90
2023-01-17T11:44:50.792Z,5.90
2023-01-17T11:49:55.385Z,6.00
2023-01-17T11:54:58.191Z,6.50
2023-01-17T12:00:30.752Z,6.60
2023-01-17T12:06:02.368Z,6.70
2023-01-17T12:11:28.990Z,6.60
2023-01-17T12:16:56.042Z,6.50
2023-01-17T12:22:13.386Z,6.40
2023-01-17T12:27:25.068Z,6.30
2023-01-17T12:32:55.412Z,6.30
2023-01-17T12:38:05.559Z,6.20
2023-01-17T12:43:15.486Z,6.60
2023-01-17T12:48:20.682Z,6.40
2023-01-17T12:53:45.320Z,6.80
2023-01-17T12:58:52.739Z,6.80
2023-01-17T13:04:46.917Z,6.80
2023-01-17T13:10:21.459Z,6.50
2023-01-17T13:15:29.011Z,6.20
2023-01-17T13:20:54.008Z,5.90
2023-01-17T13:25:59.032Z,5.70
2023-01-17T13:31:21.825Z,5.60
2023-01-17T13:36:44.941Z,5.60
2023-01-17T13:42:01.047Z,5.70
2023-01-17T13:47:05.154Z,5.90
2023-01-17T13:52:11.048Z,6.20
2023-01-17T13:57:30.364Z,6.00
2023-01-17T14:02:32.739Z,6.00
2023-01-17T14:07:40.180Z,5.80
2023-01-17T14:12:43.863Z,5.70
2023-01-17T14:17:56.891Z,5.70
2023-01-17T14:23:02.340Z,5.70
2023-01-17T14:28:25.670Z,5.70
2023-01-17T14:33:34.046Z,5.60
2023-01-17T14:38:44.139Z,5.60
2023-01-17T14:43:48.432Z,5.60
2023-01-17T14:49:15.834Z,6.00
2023-01-17T14:54:22.416Z,5.30
2023-01-17T14:59:24.810Z,5.00
2023-01-17T15:04:28.895Z,5.20
2023-01-17T15:09:36.510Z,4.70
2023-01-17T15:14:42.695Z,4.30
2023-01-17T15:19:51.503Z,4.10
2023-01-17T15:24:54.602Z,4.00
2023-01-17T15:30:01.897Z,3.80
2023-01-17T15:35:08.188Z,3.60
2023-01-17T15:40:20.498Z,3.50
2023-01-17T15:45:29.965Z,3.30
2023-01-17T15:50:36.529Z,3.10
2023-01-17T15:55:39.966Z,3.00
2023-01-17T16:00:44.279Z,2.90
2023-01-17T16:05:47.684Z,2.80
2023-01-17T16:10:55.134Z,2.70
2023-01-17T16:16:30.148Z,2.60
2023-01-17T16:21:33.310Z,2.50
2023-01-17T16:26:35.727Z,2.40
2023-01-17T16:31:38.098Z,2.40
2023-01-17T16:36:40.671Z,2.30
2023-01-17T16:41:43.322Z,2.10
2023-01-17T16:46:45.650Z,2.10
2023-01-17T16:51:47.984Z,2.10
2023-01-17T16:56:50.481Z,1.90
2023-01-17T17:01:53.098Z,1.90
2023-01-17T17:06:55.433Z,1.80
2023-01-17T17:11:57.750Z,1.60
2023-01-17T17:17:03.239Z,1.40
2023-01-17T17:22:06.698Z,1.30
2023-01-17T17:27:09.183Z,1.20
2023-01-17T17:32:11.658Z,1.20
2023-01-17T17:37:16.140Z,1.00
2023-01-17T17:42:20.041Z,1.20
2023-01-17T17:47:24.027Z,0.80
2023-01-17T17:52:28.008Z,1.20
2023-01-17T17:57:30.363Z,0.70
2023-01-17T18:02:32.703Z,0.60
2023-01-17T18:07:35.062Z,0.50
2023-01-17T18:12:37.581Z,0.40
2023-01-17T18:17:39.984Z,0.30
2023-01-17T18:22:42.383Z,0.20
2023-01-17T18:27:45.164Z,0.20
2023-01-17T18:32:49.916Z,0.10
2023-01-17T18:37:52.541Z,0.00
2023-01-17T18:42:55.876Z,0.00
2023-01-17T18:47:58.378Z,0.00
2023-01-17T18:53:00.793Z,-0.20
2023-01-17T18:58:03.111Z,-0.30
2023-01-17T19:03:06.388Z,-0.30
2023-01-17T19:08:09.576Z,-0.40
2023-01-17T19:13:14.831Z,-0.40
2023-01-17T19:18:17.560Z,-0.50
2023-01-17T19:23:19.963Z,-0.60
2023-01-17T19:28:22.572Z,-0.60
2023-01-17T19:33:24.862Z,-0.60
2023-01-17T19:38:27.825Z,-0.60
2023-01-17T19:43:30.210Z,-0.60
2023-01-17T19:48:32.602Z,-0.70
2023-01-17T19:53:37.261Z,-0.70
2023-01-17T19:58:39.617Z,-0.70
2023-01-17T20:03:43.824Z,-0.80
2023-01-17T20:08:46.585Z,-0.80
2023-01-17T20:13:53.426Z,-0.90
2023-01-17T20:18:56.784Z,-0.90
2023-01-17T20:24:00.129Z,-0.90
2023-01-17T20:29:07.383Z,-0.90
2023-01-17T20:34:12.838Z,-1.00
2023-01-17T20:39:15.948Z,-1.10
2023-01-17T20:44:19.946Z,-0.70
2023-01-17T20:49:22.441Z,-1.10
2023-01-17T20:54:24.766Z,-1.20
2023-01-17T20:59:27.099Z,-1.20
2023-01-17T21:04:29.530Z,-1.20
2023-01-17T21:09:31.913Z,-1.30
2023-01-17T21:14:34.300Z,-1.40
2023-01-17T21:19:36.824Z,-1.40
2023-01-17T21:24:39.177Z,-1.40
2023-01-17T21:29:41.513Z,-1.40
2023-01-17T21:34:43.809Z,-1.40
2023-01-17T21:39:51.392Z,-1.40
2023-01-17T21:44:54.516Z,-1.40
2023-01-17T21:49:56.905Z,-1.40
2023-01-17T21:55:17.865Z,-1.50
2023-01-17T22:00:20.425Z,-1.50
2023-01-17T22:05:22.748Z,-1.50
2023-01-17T22:10:25.094Z,-1.50
2023-01-17T22:15:27.436Z,-1.70
2023-01-17T22:20:29.881Z,-1.70
2023-01-17T22:25:32.260Z,-1.70
2023-01-17T22:30:34.788Z,-1.70
2023-01-17T22:35:37.123Z,-1.70
2023-01-17T22:40:39.538Z,-1.70
2023-01-17T22:45:42.404Z,-1.70
2023-01-17T22:50:44.737Z,-1.70
2023-01-17T22:55:47.095Z,-1.70
2023-01-17T23:00:49.680Z,-1.80
2023-01-17T23:05:52.375Z,-1.80
2023-01-17T23:11:14.965Z,-1.70
2023-01-17T23:16:36.136Z,-1.70
2023-01-17T23:21:57.049Z,-1.70
2023-01-17T23:27:17.797Z,-1.70
2023-01-17T23:32:20.151Z,-1.70
2023-01-17T23:37:46.435Z,-1.70
2023-01-17T23:43:07.347Z,-1.60
2023-01-17T23:48:10.958Z,-1.50
2023-01-17T23:53:22.126Z,-1.40
2023-01-17T23:58:26.669Z,-1.30
